createdAt,value
2019-05-06T00:01:24.628Z,99.90
2019-05-06T00:03:54.166Z,99.90
2019-05-06T00:06:24.164Z,99.90
2019-05-06T00:08:55.307Z,99.90
2019-05-06T00:11:26.134Z,99.90
2019-05-06T00:13:55.576Z,99.90
2019-05-06T00:16:24.831Z,99.90
2019-05-06T00:18:54.250Z,99.90
2019-05-06T00:21:24.447Z,99.90
2019-05-06T00:23:54.669Z,99.90
2019-05-06T00:26:34.526Z,99.90
2019-05-06T00:29:05.621Z,99.90
2019-05-06T00:31:34.725Z,99.90
2019-05-06T00:34:04.364Z,99.90
2019-05-06T00:36:34.514Z,99.90
2019-05-06T00:39:05.116Z,99.90
2019-05-06T00:41:36.429Z,99.90
2019-05-06T00:44:05.116Z,99.90
2019-05-06T00:46:34.447Z,99.90
2019-05-06T00:49:03.892Z,99.90
2019-05-06T00:51:33.808Z,99.90
2019-05-06T00:54:04.873Z,99.90
2019-05-06T00:56:34.211Z,99.90
2019-05-06T00:59:03.747Z,99.90
2019-05-06T01:01:34.444Z,99.90
2019-05-06T01:04:04.840Z,99.90
2019-05-06T01:06:34.373Z,99.90
2019-05-06T01:09:04.562Z,99.90
2019-05-06T01:11:34.608Z,99.90
2019-05-06T01:14:05.382Z,99.90
2019-05-06T01:16:34.608Z,99.90
2019-05-06T01:19:04.751Z,99.90
2019-05-06T01:21:34.336Z,99.90
2019-05-06T01:24:04.016Z,99.90
2019-05-06T01:26:33.763Z,99.90
2019-05-06T01:29:03.887Z,99.90
2019-05-06T01:31:40.581Z,99.90
2019-05-06T01:34:04.290Z,99.90
2019-05-06T01:36:34.310Z,99.90
2019-05-06T01:39:13.767Z,99.90
2019-05-06T01:41:53.633Z,99.90
2019-05-06T01:44:24.402Z,99.90
2019-05-06T01:46:54.168Z,99.90
2019-05-06T01:49:24.521Z,99.90
2019-05-06T01:51:54.562Z,99.90
2019-05-06T01:54:24.937Z,99.90
2019-05-06T01:56:54.279Z,99.90
2019-05-06T01:59:24.644Z,99.90
2019-05-06T02:02:00.553Z,99.90
2019-05-06T02:04:24.520Z,99.90
2019-05-06T02:06:55.378Z,99.90
2019-05-06T02:09:24.843Z,99.90
2019-05-06T02:11:53.872Z,99.90
2019-05-06T02:14:24.463Z,99.90
2019-05-06T02:16:54.552Z,99.90
2019-05-06T02:19:24.266Z,99.90
2019-05-06T02:21:55.079Z,99.90
2019-05-06T02:24:28.544Z,99.90
2019-05-06T02:26:57.608Z,99.90
2019-05-06T02:29:40.350Z,99.90
2019-05-06T02:32:31.181Z,99.90
2019-05-06T02:35:14.935Z,99.90
2019-05-06T02:37:46.457Z,99.90
2019-05-06T02:40:27.932Z,99.90
2019-05-06T02:42:57.056Z,99.90
2019-05-06T02:45:26.019Z,99.90
2019-05-06T02:48:04.398Z,99.90
2019-05-06T02:50:46.765Z,99.90
2019-05-06T02:53:17.371Z,99.90
2019-05-06T02:55:46.031Z,99.90
2019-05-06T02:58:15.112Z,99.90
2019-05-06T03:00:44.333Z,99.90
2019-05-06T03:03:14.184Z,99.90
2019-05-06T03:05:44.170Z,99.90
2019-05-06T03:08:13.736Z,99.90
2019-05-06T03:10:44.183Z,99.90
2019-05-06T03:13:14.176Z,99.90
2019-05-06T03:15:43.811Z,99.90
2019-05-06T03:18:14.779Z,99.90
2019-05-06T03:20:59.082Z,99.90
2019-05-06T03:23:34.996Z,99.90
2019-05-06T03:26:06.402Z,99.90
2019-05-06T03:28:33.963Z,99.90
2019-05-06T03:31:06.998Z,99.90
2019-05-06T03:33:50.549Z,99.90
2019-05-06T03:36:15.015Z,99.90
2019-05-06T03:38:34.412Z,99.90
2019-05-06T03:41:03.410Z,99.90
2019-05-06T03:43:33.787Z,99.90
2019-05-06T03:46:22.955Z,99.90
2019-05-06T03:49:04.110Z,99.90
2019-05-06T03:51:34.187Z,99.90
2019-05-06T03:54:04.206Z,99.90
2019-05-06T03:56:33.981Z,99.90
2019-05-06T03:59:04.441Z,99.90
2019-05-06T04:01:33.764Z,99.90
2019-05-06T04:04:03.673Z,99.90
2019-05-06T04:06:33.524Z,99.90
2019-05-06T04:09:05.109Z,99.90
2019-05-06T04:11:36.474Z,99.90
2019-05-06T04:14:06.874Z,99.90
2019-05-06T04:16:56.238Z,99.90
2019-05-06T04:19:27.065Z,99.90
2019-05-06T04:22:03.496Z,99.90
2019-05-06T04:24:48.849Z,99.90
2019-05-06T04:27:28.040Z,99.90
2019-05-06T04:29:57.315Z,99.90
2019-05-06T04:32:26.225Z,99.90
2019-05-06T04:34:55.013Z,99.90
2019-05-06T04:37:24.299Z,99.90
2019-05-06T04:39:53.697Z,99.90
2019-05-06T04:42:26.535Z,99.90
2019-05-06T04:44:53.642Z,99.90
2019-05-06T04:47:24.200Z,99.90
2019-05-06T04:49:53.389Z,99.90
2019-05-06T04:52:25.922Z,99.90
2019-05-06T04:54:53.402Z,99.90
2019-05-06T04:57:23.795Z,99.90
2019-05-06T04:59:54.240Z,99.90
2019-05-06T05:02:23.472Z,99.90
2019-05-06T05:04:53.227Z,99.90
2019-05-06T05:07:22.579Z,99.90
2019-05-06T05:09:53.756Z,99.90
2019-05-06T05:12:30.134Z,99.90
2019-05-06T05:15:03.263Z,99.90
2019-05-06T05:17:37.151Z,99.90
2019-05-06T05:20:07.863Z,99.90
2019-05-06T05:22:37.047Z,99.90
2019-05-06T05:25:06.883Z,99.90
2019-05-06T05:27:36.136Z,99.90
2019-05-06T05:30:09.062Z,99.90
2019-05-06T05:32:42.811Z,99.90
2019-05-06T05:35:12.687Z,99.90
2019-05-06T05:37:42.618Z,99.90
2019-05-06T05:40:13.440Z,99.90
2019-05-06T05:42:59.920Z,99.90
2019-05-06T05:45:29.521Z,99.90
2019-05-06T05:48:00.449Z,99.90
2019-05-06T05:50:37.243Z,99.90
2019-05-06T05:53:06.030Z,97.00
2019-05-06T05:55:35.085Z,97.00
2019-05-06T05:58:04.430Z,96.50
2019-05-06T06:00:36.195Z,95.10
2019-05-06T06:03:07.156Z,94.20
2019-05-06T06:05:39.603Z,94.10
2019-05-06T06:08:08.424Z,94.60
2019-05-06T06:10:42.615Z,93.10
2019-05-06T06:13:12.740Z,93.20
2019-05-06T06:15:52.027Z,91.70
2019-05-06T06:18:24.186Z,91.80
2019-05-06T06:20:55.716Z,91.00
2019-05-06T06:23:26.166Z,88.60
2019-05-06T06:25:55.154Z,89.30
2019-05-06T06:28:24.349Z,90.20
2019-05-06T06:31:03.015Z,89.70
2019-05-06T06:33:33.021Z,87.70
2019-05-06T06:36:06.885Z,89.50
2019-05-06T06:38:46.235Z,86.50
2019-05-06T06:41:15.121Z,87.20
2019-05-06T06:43:45.790Z,82.00
2019-05-06T06:46:14.626Z,84.30
2019-05-06T06:48:43.705Z,83.60
2019-05-06T06:51:12.811Z,82.60
2019-05-06T06:53:42.140Z,81.00
2019-05-06T06:56:28.388Z,82.80
2019-05-06T06:59:03.086Z,79.30
2019-05-06T07:01:42.328Z,80.40
2019-05-06T07:04:13.519Z,78.10
2019-05-06T07:06:44.625Z,80.50
2019-05-06T07:09:13.643Z,75.50
2019-05-06T07:11:42.906Z,76.00
2019-05-06T07:14:13.593Z,74.80
2019-05-06T07:16:43.018Z,74.30
2019-05-06T07:19:13.724Z,71.00
2019-05-06T07:21:53.344Z,65.60
2019-05-06T07:24:22.907Z,67.50
2019-05-06T07:26:54.012Z,64.30
2019-05-06T07:29:26.306Z,64.50
2019-05-06T07:31:53.588Z,62.00
2019-05-06T07:34:22.861Z,63.20
2019-05-06T07:36:52.644Z,59.60
2019-05-06T07:39:24.031Z,60.30
2019-05-06T07:41:57.353Z,60.40
2019-05-06T07:44:36.905Z,59.50
2019-05-06T07:47:13.290Z,59.80
2019-05-06T07:49:43.105Z,59.20
2019-05-06T07:52:12.333Z,58.10
2019-05-06T07:54:42.389Z,59.00
2019-05-06T07:57:12.772Z,59.50
2019-05-06T07:59:42.917Z,57.00
2019-05-06T08:02:13.067Z,58.00
2019-05-06T08:04:42.326Z,55.60
2019-05-06T08:07:12.619Z,53.00
2019-05-06T08:09:42.281Z,52.90
2019-05-06T08:12:12.395Z,50.50
2019-05-06T08:14:42.909Z,49.40
2019-05-06T08:17:15.683Z,48.10
2019-05-06T08:19:44.665Z,48.30
2019-05-06T08:22:15.085Z,47.80
2019-05-06T08:24:44.292Z,45.70
2019-05-06T08:27:13.292Z,47.40
2019-05-06T08:29:42.519Z,49.10
2019-05-06T08:32:12.495Z,50.50
2019-05-06T08:34:42.173Z,51.00
2019-05-06T08:37:12.819Z,51.30
2019-05-06T08:39:45.846Z,50.20
2019-05-06T08:42:13.522Z,48.20
2019-05-06T08:44:42.834Z,49.20
2019-05-06T08:47:13.301Z,49.20
2019-05-06T08:50:02.360Z,49.90
2019-05-06T08:52:32.887Z,48.40
2019-05-06T08:55:02.924Z,46.60
2019-05-06T08:57:32.523Z,49.80
2019-05-06T09:00:03.476Z,51.00
2019-05-06T09:02:32.420Z,49.00
2019-05-06T09:05:02.916Z,49.70
2019-05-06T09:07:32.169Z,46.30
2019-05-06T09:10:02.492Z,46.50
2019-05-06T09:12:32.917Z,45.70
2019-05-06T09:15:03.570Z,45.30
2019-05-06T09:17:33.067Z,45.90
2019-05-06T09:20:02.629Z,46.60
2019-05-06T09:22:32.632Z,46.80
2019-05-06T09:25:02.470Z,46.10
2019-05-06T09:27:48.663Z,47.90
2019-05-06T09:30:30.256Z,50.00
2019-05-06T09:32:59.039Z,51.40
2019-05-06T09:35:27.931Z,50.90
2019-05-06T09:37:56.958Z,50.40
2019-05-06T09:40:26.107Z,51.80
2019-05-06T09:42:54.888Z,53.40
2019-05-06T09:45:23.773Z,53.30
2019-05-06T09:48:12.887Z,52.50
2019-05-06T09:50:46.302Z,52.70
2019-05-06T09:53:15.375Z,52.80
2019-05-06T09:56:03.309Z,52.60
2019-05-06T09:58:34.473Z,51.40
2019-05-06T10:01:04.409Z,53.20
2019-05-06T10:03:33.492Z,52.60
2019-05-06T10:06:02.842Z,52.10
2019-05-06T10:08:32.294Z,53.20
2019-05-06T10:11:03.177Z,50.00
2019-05-06T10:13:32.718Z,48.40
2019-05-06T10:16:03.030Z,44.30
2019-05-06T10:18:32.681Z,44.80
2019-05-06T10:21:01.661Z,45.90
2019-05-06T10:23:32.633Z,46.10
2019-05-06T10:26:04.550Z,47.60
2019-05-06T10:28:33.601Z,48.70
2019-05-06T10:31:04.586Z,48.50
2019-05-06T10:33:33.680Z,49.00
2019-05-06T10:36:04.210Z,49.70
2019-05-06T10:38:42.388Z,49.90
2019-05-06T10:41:14.682Z,50.20
2019-05-06T10:44:06.301Z,53.20
2019-05-06T10:46:35.157Z,51.40
2019-05-06T10:49:04.177Z,52.60
2019-05-06T10:51:42.620Z,53.10
2019-05-06T10:54:12.281Z,53.80
2019-05-06T10:56:52.937Z,53.00
2019-05-06T10:59:15.107Z,54.00
2019-05-06T11:01:45.520Z,52.50
2019-05-06T11:04:14.570Z,53.30
2019-05-06T11:06:43.609Z,53.20
2019-05-06T11:09:13.573Z,53.50
2019-05-06T11:11:42.878Z,52.80
2019-05-06T11:14:12.704Z,55.20
2019-05-06T11:16:42.028Z,54.20
2019-05-06T11:19:13.124Z,53.00
2019-05-06T11:21:42.212Z,52.10
2019-05-06T11:24:12.254Z,53.50
2019-05-06T11:26:42.992Z,53.50
2019-05-06T11:29:13.330Z,53.00
2019-05-06T11:31:58.624Z,51.00
2019-05-06T11:34:29.170Z,53.20
2019-05-06T11:37:02.505Z,51.40
2019-05-06T11:39:32.227Z,49.40
2019-05-06T11:42:22.885Z,48.80
2019-05-06T11:44:32.331Z,47.40
2019-05-06T11:47:03.366Z,46.00
2019-05-06T11:49:32.620Z,46.80
2019-05-06T11:52:02.387Z,46.50
2019-05-06T11:54:33.602Z,48.80
2019-05-06T11:57:02.954Z,47.50
2019-05-06T11:59:32.000Z,46.60
2019-05-06T12:02:05.128Z,46.40
2019-05-06T12:04:33.827Z,47.90
2019-05-06T12:07:11.437Z,46.70
2019-05-06T12:09:35.472Z,49.00
2019-05-06T12:12:04.398Z,49.00
2019-05-06T12:14:33.255Z,49.50
2019-05-06T12:17:02.328Z,48.40
2019-05-06T12:19:32.396Z,49.20
2019-05-06T12:22:01.477Z,48.40
2019-05-06T12:24:30.440Z,49.30
2019-05-06T12:26:59.331Z,50.20
2019-05-06T12:29:28.319Z,46.60
2019-05-06T12:32:14.141Z,45.60
2019-05-06T12:34:43.294Z,47.50
2019-05-06T12:37:13.865Z,49.10
2019-05-06T12:39:44.662Z,47.60
2019-05-06T12:42:15.210Z,49.50
2019-05-06T12:44:45.791Z,49.50
2019-05-06T12:47:25.259Z,47.60
2019-05-06T12:49:54.453Z,46.80
2019-05-06T12:52:23.358Z,47.10
2019-05-06T12:54:54.339Z,45.90
2019-05-06T12:57:23.389Z,46.80
2019-05-06T12:59:53.238Z,47.50
2019-05-06T13:02:23.852Z,48.10
2019-05-06T13:05:00.227Z,47.30
2019-05-06T13:07:24.667Z,46.20
2019-05-06T13:09:53.432Z,46.40
2019-05-06T13:12:24.121Z,46.40
2019-05-06T13:14:53.164Z,48.50
2019-05-06T13:17:23.804Z,47.00
2019-05-06T13:19:52.779Z,45.50
2019-05-06T13:22:26.382Z,45.10
2019-05-06T13:24:55.193Z,48.30
2019-05-06T13:27:27.281Z,47.10
2019-05-06T13:29:54.687Z,48.00
2019-05-06T13:32:25.327Z,50.90
2019-05-06T13:34:54.201Z,52.00
2019-05-06T13:37:23.102Z,53.30
2019-05-06T13:39:52.930Z,53.70
2019-05-06T13:42:23.636Z,54.20
2019-05-06T13:44:52.733Z,55.80
2019-05-06T13:47:40.149Z,56.70
2019-05-06T13:50:12.194Z,57.80
2019-05-06T13:52:43.269Z,58.80
2019-05-06T13:55:12.963Z,57.60
2019-05-06T13:57:42.912Z,58.40
2019-05-06T14:00:13.670Z,58.90
2019-05-06T14:02:53.505Z,59.00
2019-05-06T14:05:22.771Z,59.30
2019-05-06T14:07:52.702Z,59.10
2019-05-06T14:10:22.288Z,58.60
2019-05-06T14:12:53.162Z,58.60
2019-05-06T14:15:23.195Z,58.70
2019-05-06T14:17:53.361Z,57.80
2019-05-06T14:20:22.739Z,57.70
2019-05-06T14:22:52.627Z,57.50
2019-05-06T14:25:33.203Z,58.50
2019-05-06T14:28:09.632Z,58.70
2019-05-06T14:30:40.106Z,60.10
2019-05-06T14:33:15.128Z,59.00
2019-05-06T14:35:43.024Z,60.10
2019-05-06T14:38:13.627Z,62.00
2019-05-06T14:41:04.369Z,62.40
2019-05-06T14:43:32.364Z,61.20
2019-05-06T14:46:00.860Z,63.50
2019-05-06T14:48:29.923Z,62.70
2019-05-06T14:50:58.870Z,63.30
2019-05-06T14:53:27.858Z,63.10
2019-05-06T14:55:58.392Z,63.90
2019-05-06T14:58:27.256Z,62.80
2019-05-06T15:00:56.650Z,64.10
2019-05-06T15:03:25.383Z,63.10
2019-05-06T15:05:54.328Z,62.70
2019-05-06T15:08:23.124Z,62.50
2019-05-06T15:10:51.911Z,64.90
2019-05-06T15:13:22.844Z,64.10
2019-05-06T15:15:52.207Z,65.60
2019-05-06T15:18:22.432Z,64.70
2019-05-06T15:20:53.137Z,62.70
2019-05-06T15:23:22.470Z,60.20
2019-05-06T15:25:52.463Z,60.10
2019-05-06T15:28:22.616Z,57.70
2019-05-06T15:31:12.346Z,57.60
2019-05-06T15:33:45.260Z,57.40
2019-05-06T15:36:19.180Z,58.10
2019-05-06T15:38:48.193Z,59.00
2019-05-06T15:41:17.632Z,59.60
2019-05-06T15:43:47.067Z,59.60
2019-05-06T15:46:15.870Z,61.30
2019-05-06T15:48:45.363Z,62.30
2019-05-06T15:51:14.367Z,62.60
2019-05-06T15:53:43.869Z,62.80
2019-05-06T15:56:13.096Z,64.60
2019-05-06T15:58:43.639Z,64.30
2019-05-06T16:01:14.461Z,65.40
2019-05-06T16:03:43.867Z,63.50
2019-05-06T16:06:12.964Z,63.60
2019-05-06T16:08:42.795Z,63.40
2019-05-06T16:11:14.374Z,63.60
2019-05-06T16:13:45.078Z,63.70
2019-05-06T16:16:13.684Z,63.60
2019-05-06T16:18:42.576Z,63.90
2019-05-06T16:21:11.706Z,63.70
2019-05-06T16:23:42.392Z,65.50
2019-05-06T16:26:12.337Z,66.00
2019-05-06T16:28:44.973Z,66.60
2019-05-06T16:31:13.277Z,65.80
2019-05-06T16:33:43.069Z,65.30
2019-05-06T16:36:13.195Z,65.70
2019-05-06T16:38:42.815Z,67.20
2019-05-06T16:41:15.668Z,68.60
2019-05-06T16:43:42.754Z,67.90
2019-05-06T16:46:12.673Z,68.60
2019-05-06T16:48:45.024Z,68.70
2019-05-06T16:51:12.613Z,66.40
2019-05-06T16:53:42.943Z,66.90
2019-05-06T16:56:22.647Z,67.80
2019-05-06T16:58:53.299Z,68.80
2019-05-06T17:01:22.588Z,68.40
2019-05-06T17:03:53.389Z,67.10
2019-05-06T17:06:26.720Z,67.00
2019-05-06T17:08:55.804Z,67.70
2019-05-06T17:11:30.418Z,69.10
2019-05-06T17:13:55.596Z,68.40
2019-05-06T17:16:24.701Z,69.20
2019-05-06T17:18:56.511Z,69.90
2019-05-06T17:21:24.238Z,71.80
2019-05-06T17:23:53.215Z,72.40
2019-05-06T17:26:22.611Z,72.60
2019-05-06T17:28:53.161Z,69.90
2019-05-06T17:31:42.460Z,70.20
2019-05-06T17:34:15.627Z,72.70
2019-05-06T17:36:46.436Z,73.80
2019-05-06T17:39:15.306Z,75.50
2019-05-06T17:41:48.590Z,75.50
2019-05-06T17:44:14.959Z,75.20
2019-05-06T17:46:54.253Z,73.20
2019-05-06T17:49:25.790Z,74.30
2019-05-06T17:51:57.054Z,74.40
2019-05-06T17:54:27.795Z,74.40
2019-05-06T17:56:57.525Z,74.60
2019-05-06T17:59:33.150Z,73.90
2019-05-06T18:01:59.127Z,72.70
2019-05-06T18:04:28.744Z,69.80
2019-05-06T18:06:57.878Z,66.70
2019-05-06T18:09:27.572Z,66.40
2019-05-06T18:11:59.330Z,67.40
2019-05-06T18:14:28.905Z,64.70
2019-05-06T18:17:03.693Z,63.50
2019-05-06T18:19:33.617Z,63.70
2019-05-06T18:22:03.053Z,65.70
2019-05-06T18:24:33.223Z,64.40
2019-05-06T18:27:04.974Z,64.70
2019-05-06T18:29:34.683Z,65.70
2019-05-06T18:32:04.062Z,65.40
2019-05-06T18:34:33.576Z,66.80
2019-05-06T18:37:04.153Z,67.20
2019-05-06T18:39:34.027Z,66.60
2019-05-06T18:42:15.535Z,66.20
2019-05-06T18:44:34.356Z,66.60
2019-05-06T18:47:03.223Z,67.90
2019-05-06T18:49:33.725Z,67.90
2019-05-06T18:52:05.204Z,69.50
2019-05-06T18:54:34.151Z,70.60
2019-05-06T18:57:04.964Z,71.50
2019-05-06T18:59:36.565Z,71.40
2019-05-06T19:02:04.232Z,71.00
2019-05-06T19:04:35.160Z,71.10
2019-05-06T19:07:10.540Z,72.80
2019-05-06T19:09:36.383Z,72.80
2019-05-06T19:12:05.412Z,72.70
2019-05-06T19:14:34.292Z,74.10
2019-05-06T19:17:03.242Z,77.90
2019-05-06T19:19:34.688Z,80.10
2019-05-06T19:22:02.975Z,81.30
2019-05-06T19:24:33.725Z,82.10
2019-05-06T19:27:02.857Z,81.70
2019-05-06T19:29:33.107Z,84.20
2019-05-06T19:32:02.958Z,85.20
2019-05-06T19:34:34.498Z,86.10
2019-05-06T19:37:02.692Z,88.30
2019-05-06T19:39:32.953Z,90.20
2019-05-06T19:42:03.924Z,91.40
2019-05-06T19:44:32.948Z,92.30
2019-05-06T19:47:02.538Z,93.10
2019-05-06T19:49:32.771Z,93.40
2019-05-06T19:52:03.134Z,94.00
2019-05-06T19:54:33.169Z,95.00
2019-05-06T19:57:02.831Z,95.50
2019-05-06T19:59:33.137Z,96.10
2019-05-06T20:02:05.029Z,96.70
2019-05-06T20:04:34.297Z,96.90
2019-05-06T20:07:04.806Z,97.90
2019-05-06T20:09:44.762Z,98.10
2019-05-06T20:12:15.469Z,98.60
2019-05-06T20:14:44.770Z,98.50
2019-05-06T20:17:14.132Z,98.90
2019-05-06T20:19:43.951Z,99.30
2019-05-06T20:22:15.966Z,99.70
2019-05-06T20:24:45.688Z,99.90
2019-05-06T20:27:14.675Z,99.90
2019-05-06T20:29:43.746Z,99.90
2019-05-06T20:32:13.572Z,99.90
2019-05-06T20:34:43.715Z,99.90
2019-05-06T20:37:13.265Z,99.90
2019-05-06T20:39:43.289Z,99.90
2019-05-06T20:42:13.016Z,99.90
2019-05-06T20:44:43.380Z,99.90
2019-05-06T20:47:13.232Z,99.90
2019-05-06T20:49:43.197Z,99.90
2019-05-06T20:52:12.609Z,99.90
2019-05-06T20:54:42.639Z,99.90
2019-05-06T20:57:12.425Z,99.90
2019-05-06T20:59:42.124Z,99.90
2019-05-06T21:02:12.420Z,99.90
2019-05-06T21:04:43.209Z,99.90
2019-05-06T21:07:12.496Z,99.90
2019-05-06T21:09:43.183Z,99.90
2019-05-06T21:12:12.780Z,99.90
2019-05-06T21:14:42.520Z,99.90
2019-05-06T21:17:12.367Z,99.90
2019-05-06T21:19:41.988Z,99.90
2019-05-06T21:22:13.254Z,99.90
2019-05-06T21:24:43.017Z,99.90
2019-05-06T21:27:12.477Z,99.90
2019-05-06T21:29:42.885Z,99.90
2019-05-06T21:32:12.180Z,99.90
2019-05-06T21:34:43.235Z,99.90
2019-05-06T21:37:12.739Z,99.90
2019-05-06T21:39:42.967Z,99.90
2019-05-06T21:42:12.432Z,99.90
2019-05-06T21:44:42.935Z,99.90
2019-05-06T21:47:12.529Z,99.90
2019-05-06T21:49:42.276Z,99.90
2019-05-06T21:52:13.025Z,99.90
2019-05-06T21:54:43.451Z,99.90
2019-05-06T21:57:12.718Z,99.90
2019-05-06T21:59:42.778Z,99.90
2019-05-06T22:02:13.828Z,99.90
2019-05-06T22:04:43.367Z,99.90
2019-05-06T22:07:12.427Z,99.90
2019-05-06T22:09:43.060Z,99.90
2019-05-06T22:12:12.359Z,99.90
2019-05-06T22:14:42.238Z,99.90
2019-05-06T22:17:13.947Z,99.90
2019-05-06T22:19:42.745Z,99.90
2019-05-06T22:22:14.621Z,99.90
2019-05-06T22:24:47.831Z,99.90
2019-05-06T22:27:16.951Z,99.90
2019-05-06T22:29:45.899Z,99.90
2019-05-06T22:32:15.106Z,99.90
2019-05-06T22:34:44.182Z,99.90
2019-05-06T22:37:13.115Z,99.90
2019-05-06T22:39:43.483Z,99.90
2019-05-06T22:42:12.584Z,99.90
2019-05-06T22:44:42.867Z,99.90
2019-05-06T22:47:12.460Z,99.90
2019-05-06T22:49:41.424Z,99.90
2019-05-06T22:52:12.408Z,99.90
2019-05-06T22:54:40.676Z,99.90
2019-05-06T22:57:11.908Z,99.90
2019-05-06T22:59:40.054Z,99.90
2019-05-06T23:02:13.009Z,99.90
2019-05-06T23:04:44.369Z,99.90
2019-05-06T23:07:14.562Z,99.90
2019-05-06T23:09:43.365Z,99.90
2019-05-06T23:12:12.408Z,99.90
2019-05-06T23:14:41.966Z,99.90
2019-05-06T23:17:12.704Z,99.90
2019-05-06T23:19:42.954Z,99.90
2019-05-06T23:22:12.247Z,99.90
2019-05-06T23:24:41.199Z,99.90
2019-05-06T23:27:10.087Z,99.90
2019-05-06T23:29:38.976Z,99.90
2019-05-06T23:32:07.772Z,99.90
2019-05-06T23:34:37.062Z,99.90
2019-05-06T23:37:13.034Z,99.90
2019-05-06T23:40:19.500Z,99.90
2019-05-06T23:43:25.524Z,99.90
2019-05-06T23:46:32.386Z,99.90
2019-05-06T23:49:38.067Z,99.90
2019-05-06T23:52:43.657Z,99.90
2019-05-06T23:55:49.417Z,99.90
2019-05-06T23:58:17.642Z,99.90
